createdAt,value
2018-12-26T00:02:53.801Z,2.30
2018-12-26T00:06:00.016Z,2.30
2018-12-26T00:09:01.255Z,2.20
2018-12-26T00:12:02.109Z,2.20
2018-12-26T00:18:27.165Z,2.10
2018-12-26T00:21:28.539Z,2.10
2018-12-26T00:24:39.254Z,2.10
2018-12-26T00:27:40.231Z,2.10
2018-12-26T00:34:06.902Z,2.00
2018-12-26T00:37:08.382Z,2.10
2018-12-26T00:40:08.342Z,2.00
2018-12-26T00:43:18.827Z,2.00
2018-12-26T00:49:30.915Z,2.00
2018-12-26T00:52:39.648Z,2.00
2018-12-26T00:55:40.371Z,1.90
2018-12-26T00:58:49.843Z,2.00
2018-12-26T01:05:26.614Z,1.90
2018-12-26T01:08:26.362Z,1.90
2018-12-26T01:11:26.527Z,1.90
2018-12-26T01:14:27.814Z,1.90
2018-12-26T01:17:28.746Z,1.80
2018-12-26T01:20:30.464Z,1.80
2018-12-26T01:23:30.858Z,1.80
2018-12-26T01:26:34.167Z,1.70
2018-12-26T01:29:23.383Z,1.80
2018-12-26T01:32:30.875Z,1.80
2018-12-26T01:35:39.634Z,1.70
2018-12-26T01:38:48.432Z,1.60
2018-12-26T01:41:57.253Z,1.60
2018-12-26T01:45:06.255Z,1.60
2018-12-26T01:48:14.816Z,1.60
2018-12-26T01:51:27.964Z,1.60
2018-12-26T01:54:40.063Z,1.60
2018-12-26T01:57:47.256Z,1.60
2018-12-26T02:00:55.755Z,1.50
2018-12-26T02:04:04.659Z,1.50
2018-12-26T02:07:13.435Z,1.50
2018-12-26T02:10:22.450Z,1.50
2018-12-26T02:13:32.652Z,1.50
2018-12-26T02:16:41.183Z,1.40
2018-12-26T02:20:06.507Z,1.40
2018-12-26T02:27:02.269Z,1.50
2018-12-26T02:30:11.924Z,1.40
2018-12-26T02:33:13.060Z,1.40
2018-12-26T02:36:13.151Z,1.40
2018-12-26T02:39:13.884Z,1.30
2018-12-26T02:42:14.799Z,1.30
2018-12-26T02:45:09.217Z,1.30
2018-12-26T02:54:33.726Z,1.60
2018-12-26T02:57:50.745Z,1.50
2018-12-26T03:03:50.957Z,1.40
2018-12-26T03:06:59.474Z,1.40
2018-12-26T03:10:10.283Z,1.40
2018-12-26T03:13:21.079Z,1.30
2018-12-26T03:16:29.852Z,1.40
2018-12-26T03:19:50.894Z,1.30
2018-12-26T03:23:41.303Z,1.40
2018-12-26T03:30:20.547Z,1.40
2018-12-26T03:33:20.786Z,1.50
2018-12-26T03:39:32.553Z,1.60
2018-12-26T03:42:33.587Z,1.50
2018-12-26T03:45:33.933Z,1.40
2018-12-26T03:48:33.452Z,1.40
2018-12-26T03:58:11.518Z,1.40
2018-12-26T04:01:22.424Z,1.40
2018-12-26T04:04:23.787Z,1.40
2018-12-26T04:07:30.354Z,1.40
2018-12-26T04:10:32.048Z,1.50
2018-12-26T04:19:28.274Z,1.60
2018-12-26T04:25:21.279Z,1.60
2018-12-26T04:31:09.343Z,1.70
2018-12-26T04:34:18.147Z,1.80
2018-12-26T04:37:19.784Z,1.80
2018-12-26T04:40:20.640Z,1.80
2018-12-26T04:46:37.113Z,1.80
2018-12-26T04:49:36.887Z,1.90
2018-12-26T04:52:37.862Z,1.90
2018-12-26T04:55:38.024Z,1.90
2018-12-26T04:58:39.239Z,1.90
2018-12-26T05:01:42.192Z,2.00
2018-12-26T05:04:43.475Z,1.90
2018-12-26T05:07:47.539Z,1.90
2018-12-26T05:10:57.738Z,2.00
2018-12-26T05:13:58.858Z,2.00
2018-12-26T05:17:01.684Z,2.00
2018-12-26T05:20:03.227Z,2.10
2018-12-26T05:23:04.683Z,2.20
2018-12-26T05:28:51.170Z,2.20
2018-12-26T05:31:52.995Z,2.20
2018-12-26T05:34:53.855Z,2.20
2018-12-26T05:37:54.167Z,2.10
2018-12-26T05:40:54.591Z,2.10
2018-12-26T05:43:57.370Z,2.10
2018-12-26T05:46:58.151Z,2.20
2018-12-26T05:49:58.304Z,2.20
2018-12-26T05:53:02.995Z,2.20
2018-12-26T05:56:04.200Z,2.30
2018-12-26T05:59:05.866Z,2.30
2018-12-26T06:02:07.526Z,2.30
2018-12-26T06:05:09.486Z,2.30
2018-12-26T06:08:18.590Z,2.30
2018-12-26T06:11:20.330Z,2.40
2018-12-26T06:14:21.358Z,2.40
2018-12-26T06:17:21.622Z,2.40
2018-12-26T06:20:22.078Z,2.40
2018-12-26T06:23:23.223Z,2.30
2018-12-26T06:26:27.334Z,2.30
2018-12-26T06:29:31.882Z,2.40
2018-12-26T06:32:33.715Z,2.40
2018-12-26T06:35:33.518Z,2.40
2018-12-26T06:38:41.224Z,2.40
2018-12-26T06:41:50.266Z,2.40
2018-12-26T06:44:59.055Z,2.40
2018-12-26T06:48:07.566Z,2.40
2018-12-26T06:51:16.091Z,2.40
2018-12-26T06:54:24.275Z,2.50
2018-12-26T06:57:37.807Z,2.50
2018-12-26T07:00:46.616Z,2.50
2018-12-26T07:03:55.458Z,2.50
2018-12-26T07:07:03.978Z,2.50
2018-12-26T07:10:13.042Z,2.60
2018-12-26T07:13:27.113Z,2.60
2018-12-26T07:16:36.175Z,2.60
2018-12-26T07:23:02.278Z,2.50
2018-12-26T07:26:03.766Z,2.60
2018-12-26T07:31:54.380Z,2.70
2018-12-26T07:34:54.612Z,2.70
2018-12-26T07:37:56.639Z,2.70
2018-12-26T07:40:57.776Z,2.70
2018-12-26T07:43:58.305Z,2.80
2018-12-26T07:47:00.140Z,2.70
2018-12-26T07:50:01.051Z,2.80
2018-12-26T07:53:10.644Z,2.80
2018-12-26T07:59:22.757Z,2.80
2018-12-26T08:02:23.199Z,2.70
2018-12-26T08:05:24.612Z,2.80
2018-12-26T08:08:31.131Z,2.80
2018-12-26T08:11:32.694Z,2.80
2018-12-26T08:14:34.071Z,2.80
2018-12-26T08:17:45.131Z,2.80
2018-12-26T08:20:53.735Z,2.80
2018-12-26T08:23:54.755Z,2.90
2018-12-26T08:26:56.375Z,2.90
2018-12-26T08:32:48.980Z,3.00
2018-12-26T08:35:50.002Z,3.00
2018-12-26T08:38:49.457Z,3.10
2018-12-26T08:41:51.389Z,3.10
2018-12-26T08:44:52.296Z,3.10
2018-12-26T08:47:54.152Z,3.20
2018-12-26T08:50:55.163Z,3.20
2018-12-26T08:54:15.206Z,3.20
2018-12-26T08:57:15.682Z,3.20
2018-12-26T09:00:20.451Z,3.20
2018-12-26T09:06:48.091Z,3.30
2018-12-26T09:09:48.271Z,3.30
2018-12-26T09:12:51.448Z,3.30
2018-12-26T09:15:52.609Z,3.40
2018-12-26T09:18:55.807Z,3.40
2018-12-26T09:21:57.996Z,3.40
2018-12-26T09:28:24.999Z,3.40
2018-12-26T09:35:07.027Z,3.50
2018-12-26T09:38:07.389Z,3.50
2018-12-26T09:41:32.730Z,3.60
2018-12-26T09:44:17.467Z,3.70
2018-12-26T09:50:09.997Z,3.80
2018-12-26T09:53:11.647Z,3.80
2018-12-26T09:56:12.863Z,5.70
2018-12-26T09:59:14.383Z,5.40
2018-12-26T10:02:15.269Z,5.70
2018-12-26T10:05:16.999Z,6.10
2018-12-26T10:08:18.701Z,6.10
2018-12-26T10:11:18.330Z,5.80
2018-12-26T10:14:18.594Z,5.80
2018-12-26T10:17:20.079Z,6.20
2018-12-26T10:23:32.587Z,5.90
2018-12-26T10:26:33.710Z,5.50
2018-12-26T10:29:34.505Z,6.20
2018-12-26T10:32:35.635Z,5.40
2018-12-26T10:35:36.683Z,4.80
2018-12-26T10:38:37.006Z,4.40
2018-12-26T10:41:37.870Z,4.20
2018-12-26T10:44:39.181Z,4.20
2018-12-26T10:51:06.843Z,4.10
2018-12-26T10:57:46.691Z,4.20
2018-12-26T11:00:46.370Z,4.10
2018-12-26T11:03:49.592Z,4.10
2018-12-26T11:10:04.431Z,4.20
2018-12-26T11:13:05.274Z,4.20
2018-12-26T11:19:15.714Z,4.10
2018-12-26T11:22:17.127Z,4.20
2018-12-26T11:25:19.048Z,4.20
2018-12-26T11:28:20.615Z,4.30
2018-12-26T11:31:21.986Z,4.40
2018-12-26T11:34:22.430Z,4.40
2018-12-26T11:37:22.053Z,4.40
2018-12-26T11:40:30.999Z,4.40
2018-12-26T11:43:39.153Z,4.50
2018-12-26T11:46:48.166Z,4.60
2018-12-26T11:49:56.964Z,4.70
2018-12-26T11:53:05.485Z,4.70
2018-12-26T11:56:14.002Z,4.60
2018-12-26T11:59:27.113Z,4.70
2018-12-26T12:06:29.440Z,4.80
2018-12-26T12:09:38.042Z,4.80
2018-12-26T12:12:45.827Z,4.80
2018-12-26T12:15:54.726Z,4.70
2018-12-26T12:19:03.578Z,4.70
2018-12-26T12:22:12.210Z,4.70
2018-12-26T12:25:13.534Z,4.90
2018-12-26T12:30:59.979Z,5.20
2018-12-26T12:34:01.214Z,5.30
2018-12-26T12:37:01.214Z,5.40
2018-12-26T12:40:02.522Z,5.30
2018-12-26T12:49:16.652Z,5.40
2018-12-26T12:52:18.202Z,5.30
2018-12-26T12:55:19.232Z,5.40
2018-12-26T12:58:20.614Z,5.20
2018-12-26T13:01:27.093Z,5.10
2018-12-26T13:04:28.635Z,5.10
2018-12-26T13:07:30.670Z,5.20
2018-12-26T13:10:20.470Z,5.10
2018-12-26T13:13:28.987Z,5.20
2018-12-26T13:16:37.860Z,5.20
2018-12-26T13:19:46.622Z,5.30
2018-12-26T13:22:55.150Z,5.20
2018-12-26T13:25:56.436Z,5.30
2018-12-26T13:28:57.550Z,5.30
2018-12-26T13:32:04.008Z,5.20
2018-12-26T13:35:05.607Z,5.30
2018-12-26T13:38:24.062Z,5.40
2018-12-26T13:41:25.332Z,5.40
2018-12-26T13:44:26.331Z,5.50
2018-12-26T13:47:27.687Z,5.60
2018-12-26T13:53:54.911Z,5.60
2018-12-26T14:00:20.791Z,5.60
2018-12-26T14:03:20.920Z,5.70
2018-12-26T14:06:22.211Z,5.60
2018-12-26T14:09:24.901Z,5.60
2018-12-26T14:12:29.531Z,5.70
2018-12-26T14:26:01.519Z,5.60
2018-12-26T14:29:02.639Z,5.60
2018-12-26T14:32:03.824Z,5.50
2018-12-26T14:35:05.086Z,5.40
2018-12-26T14:38:07.290Z,5.50
2018-12-26T14:41:07.475Z,5.50
2018-12-26T14:44:08.987Z,5.40
2018-12-26T14:47:10.762Z,5.50
2018-12-26T14:50:12.168Z,5.50
2018-12-26T14:53:13.892Z,5.50
2018-12-26T14:56:15.579Z,5.50
2018-12-26T14:59:17.195Z,5.50
2018-12-26T15:02:17.844Z,5.50
2018-12-26T15:05:19.363Z,5.50
2018-12-26T15:08:20.891Z,5.60
2018-12-26T15:11:21.895Z,5.60
2018-12-26T15:14:23.499Z,5.50
2018-12-26T15:17:24.535Z,5.50
2018-12-26T15:23:36.951Z,5.60
2018-12-26T15:26:38.313Z,5.60
2018-12-26T15:29:39.972Z,5.60
2018-12-26T15:32:41.183Z,5.50
2018-12-26T15:35:42.735Z,5.60
2018-12-26T15:38:43.595Z,5.50
2018-12-26T15:45:22.488Z,5.60
2018-12-26T15:54:33.679Z,5.60
2018-12-26T15:57:35.006Z,5.50
2018-12-26T16:03:46.319Z,5.50
2018-12-26T16:06:48.295Z,5.60
2018-12-26T16:09:50.250Z,5.50
2018-12-26T16:12:52.067Z,5.60
2018-12-26T16:15:52.892Z,5.60
2018-12-26T16:18:59.392Z,5.60
2018-12-26T16:22:01.186Z,5.60
2018-12-26T16:25:02.266Z,5.60
2018-12-26T16:31:48.903Z,5.60
2018-12-26T16:37:31.846Z,5.70
2018-12-26T16:44:13.503Z,5.70
2018-12-26T16:50:27.053Z,5.60
2018-12-26T16:53:26.147Z,5.60
2018-12-26T16:56:27.911Z,5.60
2018-12-26T16:59:29.361Z,5.60
2018-12-26T17:02:30.450Z,5.60
2018-12-26T17:05:32.147Z,5.60
2018-12-26T17:08:34.155Z,5.60
2018-12-26T17:11:36.627Z,5.60
2018-12-26T17:18:07.003Z,5.60
2018-12-26T17:21:10.020Z,5.60
2018-12-26T17:24:16.505Z,5.60
2018-12-26T17:27:34.134Z,5.60
2018-12-26T17:30:35.855Z,5.60
2018-12-26T17:33:37.159Z,5.60
2018-12-26T17:36:38.538Z,5.60
2018-12-26T17:42:51.267Z,5.60
2018-12-26T17:49:16.943Z,5.60
2018-12-26T17:55:56.594Z,5.60
2018-12-26T17:58:59.176Z,5.60
2018-12-26T18:02:00.694Z,5.50
2018-12-26T18:05:01.282Z,5.40
2018-12-26T18:08:02.595Z,5.30
2018-12-26T18:11:03.643Z,5.30
2018-12-26T18:24:21.270Z,5.10
2018-12-26T18:27:22.675Z,5.00
2018-12-26T18:30:24.235Z,5.00
2018-12-26T18:37:04.759Z,5.00
2018-12-26T18:40:06.148Z,5.10
2018-12-26T18:45:52.867Z,5.10
2018-12-26T18:51:39.103Z,5.00
2018-12-26T18:54:40.023Z,5.00
2018-12-26T18:57:42.363Z,4.90
2018-12-26T19:00:43.691Z,4.90
2018-12-26T19:03:45.475Z,5.00
2018-12-26T19:10:11.271Z,5.00
2018-12-26T19:13:21.250Z,5.00
2018-12-26T19:16:22.795Z,4.90
2018-12-26T19:19:24.734Z,4.90
2018-12-26T19:22:26.304Z,4.90
2018-12-26T19:25:27.691Z,4.90
2018-12-26T19:28:28.999Z,4.90
2018-12-26T19:31:39.283Z,4.90
2018-12-26T19:34:32.791Z,5.00
2018-12-26T19:37:32.718Z,5.10
2018-12-26T19:43:42.678Z,5.00
2018-12-26T19:53:23.736Z,5.00
2018-12-26T19:56:32.519Z,5.00
2018-12-26T19:59:41.031Z,4.90
2018-12-26T20:02:49.827Z,4.80
2018-12-26T20:06:00.634Z,4.70
2018-12-26T20:09:27.314Z,4.80
2018-12-26T20:12:36.146Z,4.80
2018-12-26T20:15:44.908Z,4.90
2018-12-26T20:18:44.613Z,4.90
2018-12-26T20:24:56.090Z,5.00
2018-12-26T20:27:57.543Z,5.00
2018-12-26T20:34:14.066Z,4.90
2018-12-26T20:37:14.194Z,4.90
2018-12-26T20:40:34.315Z,4.90
2018-12-26T20:43:35.506Z,4.90
2018-12-26T20:46:56.847Z,4.90
2018-12-26T20:49:58.834Z,4.90
2018-12-26T20:52:59.776Z,4.80
2018-12-26T20:56:01.075Z,4.60
2018-12-26T20:58:50.630Z,4.60
2018-12-26T21:02:05.669Z,4.70
2018-12-26T21:08:24.042Z,4.60
2018-12-26T21:11:32.554Z,4.50
2018-12-26T21:14:46.083Z,4.50
2018-12-26T21:17:55.084Z,4.50
2018-12-26T21:20:56.675Z,4.60
2018-12-26T21:23:58.126Z,4.60
2018-12-26T21:26:59.362Z,4.70
2018-12-26T21:30:00.676Z,4.60
2018-12-26T21:33:01.759Z,4.60
2018-12-26T21:39:44.916Z,4.60
2018-12-26T21:42:45.938Z,4.60
2018-12-26T21:45:46.402Z,4.60
2018-12-26T21:48:46.869Z,4.70
2018-12-26T21:51:48.164Z,4.60
2018-12-26T21:54:56.771Z,4.60
2018-12-26T21:58:04.886Z,4.60
2018-12-26T22:01:11.858Z,4.60
2018-12-26T22:07:18.130Z,4.70
2018-12-26T22:10:26.962Z,4.80
2018-12-26T22:13:35.375Z,4.70
2018-12-26T22:19:26.023Z,4.70
2018-12-26T22:22:26.512Z,4.70
2018-12-26T22:25:28.248Z,4.80
2018-12-26T22:31:38.238Z,4.80
2018-12-26T22:34:39.860Z,4.60
2018-12-26T22:37:59.769Z,4.60
2018-12-26T22:41:00.291Z,4.70
2018-12-26T22:44:00.026Z,4.70
2018-12-26T22:47:07.628Z,4.70
2018-12-26T22:50:16.472Z,4.50
2018-12-26T22:53:43.062Z,4.60
2018-12-26T22:56:51.642Z,4.60
2018-12-26T22:59:58.403Z,4.50
2018-12-26T23:03:06.306Z,4.60
2018-12-26T23:06:18.399Z,4.50
2018-12-26T23:09:32.255Z,4.50
2018-12-26T23:12:40.666Z,4.50
2018-12-26T23:15:49.787Z,4.50
2018-12-26T23:18:51.443Z,4.30
2018-12-26T23:22:12.927Z,4.30
2018-12-26T23:25:14.411Z,4.30
2018-12-26T23:28:20.650Z,4.20
2018-12-26T23:31:22.426Z,4.20
2018-12-26T23:34:24.035Z,4.20
2018-12-26T23:37:25.222Z,4.30
2018-12-26T23:40:27.432Z,4.30
2018-12-26T23:43:29.367Z,4.30
2018-12-26T23:46:30.647Z,4.20
2018-12-26T23:49:32.482Z,4.10
2018-12-26T23:52:32.714Z,4.10
2018-12-26T23:55:34.944Z,4.30
2018-12-26T23:58:36.507Z,4.30
